Terminal Aerodrome Forecast
Issued by NWS Goodland, KS

Home | Current Version | Previous Version | Text Only | Print | Product List | Glossary On
Versions: 1 2 3 4 5 6 7 8 9 10 11 12 13
000
FTUS43 KGLD 271730
TAFGLD
TAF
KGLD 271730Z 2718/2818 30015G28KT P6SM VCSH SCT120
     FM272200 33010KT P6SM VCSH BKN080
     FM280500 33007KT P6SM BKN110
     FM281400 33015KT P6SM SKC=

USA.gov is the U.S. government's official web portal to all federal, state and local government web resources and services.